sensor_id;sensor_type;location;lat;lon;timestamp;pressure;altitude;pressure_sealevel;temperature;humidity
50430;BME280;36359;41.556;-8.418;2023-05-23T00:00:41;99822.53;;;20.48;57.13
50430;BME280;36359;41.556;-8.418;2023-05-23T00:03:06;99826.22;;;20.41;57.15
50430;BME280;36359;41.556;-8.418;2023-05-23T00:05:51;99819.97;;;20.28;57.71
50430;BME280;36359;41.556;-8.418;2023-05-23T00:08:16;99816.88;;;20.17;57.60
50430;BME280;36359;41.556;-8.418;2023-05-23T00:10:42;99823.03;;;19.88;58.97
50430;BME280;36359;41.556;-8.418;2023-05-23T00:13:08;99814.66;;;19.76;60.07
50430;BME280;36359;41.556;-8.418;2023-05-23T00:15:40;99815.63;;;19.57;61.01
50430;BME280;36359;41.556;-8.418;2023-05-23T00:18:06;99815.78;;;19.68;61.27
50430;BME280;36359;41.556;-8.418;2023-05-23T00:20:33;99808.16;;;19.95;60.25
50430;BME280;36359;41.556;-8.418;2023-05-23T00:23:00;99805.41;;;19.95;60.49
50430;BME280;36359;41.556;-8.418;2023-05-23T00:25:28;99799.41;;;19.80;60.85
50430;BME280;36359;41.556;-8.418;2023-05-23T00:27:58;99802.53;;;19.84;61.27
50430;BME280;36359;41.556;-8.418;2023-05-23T00:30:24;99799.34;;;19.87;61.06
50430;BME280;36359;41.556;-8.418;2023-05-23T00:32:49;99800.47;;;20.04;60.67
50430;BME280;36359;41.556;-8.418;2023-05-23T00:35:16;99798.88;;;19.90;61.38
50430;BME280;36359;41.556;-8.418;2023-05-23T00:37:42;99803.88;;;20.00;61.20
50430;BME280;36359;41.556;-8.418;2023-05-23T00:40:08;99801.38;;;19.98;61.77
50430;BME280;36359;41.556;-8.418;2023-05-23T00:42:34;99805.00;;;20.17;60.40
50430;BME280;36359;41.556;-8.418;2023-05-23T00:44:59;99809.19;;;20.01;61.47
50430;BME280;36359;41.556;-8.418;2023-05-23T00:47:25;99806.47;;;20.19;60.68
50430;BME280;36359;41.556;-8.418;2023-05-23T00:49:50;99800.75;;;20.21;60.71
50430;BME280;36359;41.556;-8.418;2023-05-23T00:52:16;99797.00;;;20.15;60.50
50430;BME280;36359;41.556;-8.418;2023-05-23T00:54:41;99795.03;;;19.98;60.62
50430;BME280;36359;41.556;-8.418;2023-05-23T00:57:07;99793.56;;;19.95;60.98
50430;BME280;36359;41.556;-8.418;2023-05-23T00:59:33;99786.56;;;19.67;62.00
50430;BME280;36359;41.556;-8.418;2023-05-23T01:02:00;99784.09;;;19.84;61.43
50430;BME280;36359;41.556;-8.418;2023-05-23T01:04:26;99780.38;;;19.97;61.24
50430;BME280;36359;41.556;-8.418;2023-05-23T01:06:55;99781.09;;;19.92;61.54
50430;BME280;36359;41.556;-8.418;2023-05-23T01:09:22;99781.41;;;19.78;62.23
50430;BME280;36359;41.556;-8.418;2023-05-23T01:17:16;99769.94;;;19.81;61.95
50430;BME280;36359;41.556;-8.418;2023-05-23T01:19:48;99776.09;;;19.83;61.99
50430;BME280;36359;41.556;-8.418;2023-05-23T01:22:20;99776.81;;;19.71;62.70
50430;BME280;36359;41.556;-8.418;2023-05-23T01:24:53;99777.31;;;20.12;61.12
50430;BME280;36359;41.556;-8.418;2023-05-23T01:27:34;99783.53;;;19.76;62.06
50430;BME280;36359;41.556;-8.418;2023-05-23T01:30:00;99779.91;;;19.43;63.56
50430;BME280;36359;41.556;-8.418;2023-05-23T01:32:27;99779.38;;;18.83;66.00
50430;BME280;36359;41.556;-8.418;2023-05-23T01:34:53;99781.94;;;18.78;66.98
50430;BME280;36359;41.556;-8.418;2023-05-23T01:37:19;99782.75;;;18.78;67.67
50430;BME280;36359;41.556;-8.418;2023-05-23T01:39:45;99782.28;;;18.95;67.12
50430;BME280;36359;41.556;-8.418;2023-05-23T01:42:11;99788.19;;;18.98;67.04
50430;BME280;36359;41.556;-8.418;2023-05-23T01:44:36;99769.16;;;18.97;66.95
50430;BME280;36359;41.556;-8.418;2023-05-23T01:47:02;99774.28;;;19.32;66.21
50430;BME280;36359;41.556;-8.418;2023-05-23T01:49:29;99771.34;;;19.58;64.57
50430;BME280;36359;41.556;-8.418;2023-05-23T01:51:56;99771.41;;;19.51;65.06
50430;BME280;36359;41.556;-8.418;2023-05-23T01:54:23;99769.09;;;19.48;65.23
50430;BME280;36359;41.556;-8.418;2023-05-23T01:56:48;99774.50;;;19.62;64.67
50430;BME280;36359;41.556;-8.418;2023-05-23T01:59:15;99777.84;;;19.39;66.24
50430;BME280;36359;41.556;-8.418;2023-05-23T02:01:41;99778.28;;;19.36;66.01
50430;BME280;36359;41.556;-8.418;2023-05-23T02:04:07;99786.47;;;19.04;67.43
50430;BME280;36359;41.556;-8.418;2023-05-23T02:06:32;99782.22;;;19.08;67.16
50430;BME280;36359;41.556;-8.418;2023-05-23T02:08:58;99780.53;;;19.45;65.70
50430;BME280;36359;41.556;-8.418;2023-05-23T02:11:23;99769.16;;;19.73;63.84
50430;BME280;36359;41.556;-8.418;2023-05-23T02:13:51;99775.63;;;19.54;65.09
50430;BME280;36359;41.556;-8.418;2023-05-23T02:16:16;99779.03;;;19.49;64.56
50430;BME280;36359;41.556;-8.418;2023-05-23T02:18:42;99781.63;;;19.38;64.93
50430;BME280;36359;41.556;-8.418;2023-05-23T02:21:11;99780.69;;;19.19;65.82
50430;BME280;36359;41.556;-8.418;2023-05-23T02:23:36;99780.03;;;19.55;64.02
50430;BME280;36359;41.556;-8.418;2023-05-23T02:26:02;99771.56;;;19.25;65.80
50430;BME280;36359;41.556;-8.418;2023-05-23T02:28:27;99775.59;;;19.22;65.93
50430;BME280;36359;41.556;-8.418;2023-05-23T02:30:53;99773.38;;;19.06;66.54
50430;BME280;36359;41.556;-8.418;2023-05-23T02:33:18;99772.78;;;18.91;66.71
50430;BME280;36359;41.556;-8.418;2023-05-23T02:35:44;99779.09;;;18.98;66.20
50430;BME280;36359;41.556;-8.418;2023-05-23T02:38:10;99779.28;;;19.03;65.99
50430;BME280;36359;41.556;-8.418;2023-05-23T02:40:35;99782.59;;;19.18;65.05
50430;BME280;36359;41.556;-8.418;2023-05-23T02:43:01;99788.28;;;19.23;64.58
50430;BME280;36359;41.556;-8.418;2023-05-23T02:45:28;99775.00;;;19.14;64.95
50430;BME280;36359;41.556;-8.418;2023-05-23T02:47:53;99776.13;;;19.44;63.72
50430;BME280;36359;41.556;-8.418;2023-05-23T02:50:19;99779.66;;;19.51;63.43
50430;BME280;36359;41.556;-8.418;2023-05-23T02:52:45;99790.03;;;19.49;63.38
50430;BME280;36359;41.556;-8.418;2023-05-23T02:55:10;99791.41;;;19.34;64.11
50430;BME280;36359;41.556;-8.418;2023-05-23T02:57:40;99783.94;;;19.09;64.92
50430;BME280;36359;41.556;-8.418;2023-05-23T03:00:06;99784.97;;;19.08;65.24
50430;BME280;36359;41.556;-8.418;2023-05-23T03:02:34;99791.06;;;19.17;65.08
50430;BME280;36359;41.556;-8.418;2023-05-23T03:04:59;99791.16;;;19.42;64.04
50430;BME280;36359;41.556;-8.418;2023-05-23T03:07:25;99784.88;;;19.66;63.27
50430;BME280;36359;41.556;-8.418;2023-05-23T03:09:51;99785.78;;;19.54;63.32
50430;BME280;36359;41.556;-8.418;2023-05-23T03:12:16;99776.41;;;19.29;64.41
50430;BME280;36359;41.556;-8.418;2023-05-23T03:14:42;99773.75;;;19.10;65.07
50430;BME280;36359;41.556;-8.418;2023-05-23T03:17:07;99778.66;;;19.01;65.54
50430;BME280;36359;41.556;-8.418;2023-05-23T03:19:33;99785.22;;;19.00;65.78
50430;BME280;36359;41.556;-8.418;2023-05-23T03:21:59;99778.44;;;19.41;64.07
50430;BME280;36359;41.556;-8.418;2023-05-23T03:24:24;99780.78;;;19.37;64.24
50430;BME280;36359;41.556;-8.418;2023-05-23T03:26:50;99778.72;;;19.33;64.36
50430;BME280;36359;41.556;-8.418;2023-05-23T03:29:16;99779.78;;;19.32;64.37
50430;BME280;36359;41.556;-8.418;2023-05-23T03:31:42;99784.53;;;19.11;64.62
50430;BME280;36359;41.556;-8.418;2023-05-23T03:34:07;99777.50;;;19.22;64.08
50430;BME280;36359;41.556;-8.418;2023-05-23T03:36:33;99778.78;;;18.74;65.81
50430;BME280;36359;41.556;-8.418;2023-05-23T03:38:59;99777.56;;;18.37;67.91
50430;BME280;36359;41.556;-8.418;2023-05-23T03:41:25;99781.28;;;18.76;66.46
50430;BME280;36359;41.556;-8.418;2023-05-23T03:43:51;99778.16;;;18.52;67.86
50430;BME280;36359;41.556;-8.418;2023-05-23T03:46:16;99780.22;;;18.70;66.95
50430;BME280;36359;41.556;-8.418;2023-05-23T03:48:42;99784.41;;;18.93;65.58
50430;BME280;36359;41.556;-8.418;2023-05-23T03:51:08;99784.28;;;19.19;64.01
50430;BME280;36359;41.556;-8.418;2023-05-23T03:53:34;99781.75;;;19.18;64.18
50430;BME280;36359;41.556;-8.418;2023-05-23T03:55:59;99787.03;;;19.19;64.06
50430;BME280;36359;41.556;-8.418;2023-05-23T03:58:25;99779.06;;;19.43;63.30
50430;BME280;36359;41.556;-8.418;2023-05-23T04:00:55;99790.00;;;19.56;63.16
50430;BME280;36359;41.556;-8.418;2023-05-23T04:03:20;99788.03;;;19.32;63.78
50430;BME280;36359;41.556;-8.418;2023-05-23T04:05:48;99788.78;;;19.45;63.12
50430;BME280;36359;41.556;-8.418;2023-05-23T04:08:14;99792.78;;;19.18;63.88
50430;BME280;36359;41.556;-8.418;2023-05-23T04:10:40;99790.53;;;18.88;64.83
50430;BME280;36359;41.556;-8.418;2023-05-23T04:13:05;99790.41;;;18.56;66.13
50430;BME280;36359;41.556;-8.418;2023-05-23T04:15:31;99790.47;;;17.97;71.57
50430;BME280;36359;41.556;-8.418;2023-05-23T04:18:05;99790.47;;;18.10;71.23
50430;BME280;36359;41.556;-8.418;2023-05-23T04:20:32;99784.91;;;18.50;68.69
50430;BME280;36359;41.556;-8.418;2023-05-23T04:22:58;99793.56;;;18.60;68.41
50430;BME280;36359;41.556;-8.418;2023-05-23T04:25:25;99786.41;;;18.59;67.81
50430;BME280;36359;41.556;-8.418;2023-05-23T04:28:24;99791.44;;;18.75;66.44
50430;BME280;36359;41.556;-8.418;2023-05-23T04:30:50;99799.44;;;18.70;66.15
50430;BME280;36359;41.556;-8.418;2023-05-23T04:33:21;99794.53;;;18.99;65.30
50430;BME280;36359;41.556;-8.418;2023-05-23T04:35:47;99801.38;;;18.76;66.07
50430;BME280;36359;41.556;-8.418;2023-05-23T04:38:15;99802.00;;;18.58;66.80
50430;BME280;36359;41.556;-8.418;2023-05-23T04:40:41;99807.34;;;18.20;68.31
50430;BME280;36359;41.556;-8.418;2023-05-23T04:43:27;99806.53;;;17.86;69.31
50430;BME280;36359;41.556;-8.418;2023-05-23T04:45:59;99799.56;;;17.90;69.35
50430;BME280;36359;41.556;-8.418;2023-05-23T04:48:36;99807.16;;;18.22;68.23
50430;BME280;36359;41.556;-8.418;2023-05-23T04:51:03;99808.22;;;18.07;67.74
50430;BME280;36359;41.556;-8.418;2023-05-23T04:53:34;99811.56;;;18.29;67.20
50430;BME280;36359;41.556;-8.418;2023-05-23T04:56:01;99808.94;;;18.88;65.58
50430;BME280;36359;41.556;-8.418;2023-05-23T04:58:28;99814.50;;;18.74;65.86
50430;BME280;36359;41.556;-8.418;2023-05-23T05:01:00;99809.47;;;18.31;67.24
50430;BME280;36359;41.556;-8.418;2023-05-23T05:03:25;99808.59;;;18.51;65.90
50430;BME280;36359;41.556;-8.418;2023-05-23T05:05:52;99811.53;;;18.82;64.93
50430;BME280;36359;41.556;-8.418;2023-05-23T05:08:18;99811.72;;;18.61;64.51
50430;BME280;36359;41.556;-8.418;2023-05-23T05:10:44;99804.97;;;18.64;65.83
50430;BME280;36359;41.556;-8.418;2023-05-23T05:13:10;99814.13;;;18.04;67.28
50430;BME280;36359;41.556;-8.418;2023-05-23T05:15:43;99809.00;;;17.75;69.82
50430;BME280;36359;41.556;-8.418;2023-05-23T05:18:09;99820.41;;;17.65;70.70
50430;BME280;36359;41.556;-8.418;2023-05-23T05:20:36;99818.94;;;17.69;71.52
50430;BME280;36359;41.556;-8.418;2023-05-23T05:23:02;99824.06;;;18.19;69.44
50430;BME280;36359;41.556;-8.418;2023-05-23T05:25:27;99823.63;;;17.95;68.19
50430;BME280;36359;41.556;-8.418;2023-05-23T05:28:00;99826.78;;;17.79;68.83
50430;BME280;36359;41.556;-8.418;2023-05-23T05:30:29;99825.53;;;18.14;67.11
50430;BME280;36359;41.556;-8.418;2023-05-23T05:32:58;99829.72;;;18.57;65.98
50430;BME280;36359;41.556;-8.418;2023-05-23T05:35:26;99822.94;;;18.53;66.72
50430;BME280;36359;41.556;-8.418;2023-05-23T05:37:52;99829.47;;;18.78;65.44
50430;BME280;36359;41.556;-8.418;2023-05-23T05:40:18;99826.28;;;18.88;65.55
50430;BME280;36359;41.556;-8.418;2023-05-23T05:42:43;99816.34;;;18.87;65.30
50430;BME280;36359;41.556;-8.418;2023-05-23T05:45:09;99828.16;;;19.01;64.80
50430;BME280;36359;41.556;-8.418;2023-05-23T05:47:37;99828.44;;;18.66;65.42
50430;BME280;36359;41.556;-8.418;2023-05-23T05:50:06;99827.81;;;18.57;67.66
50430;BME280;36359;41.556;-8.418;2023-05-23T05:52:35;99825.88;;;18.71;68.34
50430;BME280;36359;41.556;-8.418;2023-05-23T05:55:05;99832.50;;;18.30;69.86
50430;BME280;36359;41.556;-8.418;2023-05-23T05:57:31;99827.56;;;18.86;64.64
50430;BME280;36359;41.556;-8.418;2023-05-23T05:59:58;99831.81;;;18.81;65.10
50430;BME280;36359;41.556;-8.418;2023-05-23T06:02:24;99829.06;;;18.81;65.40
50430;BME280;36359;41.556;-8.418;2023-05-23T06:04:51;99829.06;;;18.68;66.80
50430;BME280;36359;41.556;-8.418;2023-05-23T06:07:17;99837.97;;;18.57;66.53
50430;BME280;36359;41.556;-8.418;2023-05-23T06:09:44;99833.00;;;18.99;60.44
50430;BME280;36359;41.556;-8.418;2023-05-23T06:12:10;99837.97;;;19.28;59.82
50430;BME280;36359;41.556;-8.418;2023-05-23T06:14:35;99839.53;;;19.56;63.90
50430;BME280;36359;41.556;-8.418;2023-05-23T06:17:01;99843.31;;;19.68;63.17
50430;BME280;36359;41.556;-8.418;2023-05-23T06:19:27;99848.22;;;19.53;63.62
50430;BME280;36359;41.556;-8.418;2023-05-23T06:21:55;99848.44;;;19.51;63.79
50430;BME280;36359;41.556;-8.418;2023-05-23T06:24:21;99851.03;;;19.40;65.51
50430;BME280;36359;41.556;-8.418;2023-05-23T06:26:46;99855.16;;;19.62;60.27
50430;BME280;36359;41.556;-8.418;2023-05-23T06:29:12;99856.81;;;19.77;59.31
50430;BME280;36359;41.556;-8.418;2023-05-23T06:31:38;99848.56;;;20.02;60.07
50430;BME280;36359;41.556;-8.418;2023-05-23T06:34:04;99841.97;;;20.09;59.75
50430;BME280;36359;41.556;-8.418;2023-05-23T06:36:29;99846.16;;;20.37;59.41
50430;BME280;36359;41.556;-8.418;2023-05-23T06:38:56;99847.53;;;20.28;59.40
50430;BME280;36359;41.556;-8.418;2023-05-23T06:41:21;99844.75;;;20.28;56.63
50430;BME280;36359;41.556;-8.418;2023-05-23T06:43:47;99841.50;;;20.37;58.43
50430;BME280;36359;41.556;-8.418;2023-05-23T06:46:23;99847.91;;;20.31;59.67
50430;BME280;36359;41.556;-8.418;2023-05-23T06:48:48;99843.75;;;19.65;63.71
50430;BME280;36359;41.556;-8.418;2023-05-23T06:51:14;99844.41;;;19.54;65.95
50430;BME280;36359;41.556;-8.418;2023-05-23T06:53:40;99854.44;;;19.42;64.61
50430;BME280;36359;41.556;-8.418;2023-05-23T06:56:06;99854.31;;;19.68;65.14
50430;BME280;36359;41.556;-8.418;2023-05-23T06:58:38;99852.88;;;19.91;65.00
50430;BME280;36359;41.556;-8.418;2023-05-23T07:01:05;99854.97;;;19.95;61.71
50430;BME280;36359;41.556;-8.418;2023-05-23T07:03:35;99855.72;;;20.09;60.10
50430;BME280;36359;41.556;-8.418;2023-05-23T07:06:05;99857.00;;;20.32;56.05
50430;BME280;36359;41.556;-8.418;2023-05-23T07:08:31;99856.84;;;20.52;54.11
50430;BME280;36359;41.556;-8.418;2023-05-23T07:10:59;99852.09;;;20.84;54.19
50430;BME280;36359;41.556;-8.418;2023-05-23T07:13:47;99853.31;;;20.88;54.36
50430;BME280;36359;41.556;-8.418;2023-05-23T07:16:20;99862.66;;;21.05;52.37
50430;BME280;36359;41.556;-8.418;2023-05-23T07:18:57;99864.66;;;20.98;51.86
50430;BME280;36359;41.556;-8.418;2023-05-23T07:21:26;99865.41;;;21.05;52.33
50430;BME280;36359;41.556;-8.418;2023-05-23T07:23:53;99860.91;;;21.11;51.17
50430;BME280;36359;41.556;-8.418;2023-05-23T07:26:21;99852.63;;;21.11;50.89
50430;BME280;36359;41.556;-8.418;2023-05-23T07:28:54;99857.94;;;21.13;50.65
50430;BME280;36359;41.556;-8.418;2023-05-23T07:31:21;99854.72;;;21.16;49.84
50430;BME280;36359;41.556;-8.418;2023-05-23T07:33:48;99846.72;;;21.26;49.75
50430;BME280;36359;41.556;-8.418;2023-05-23T07:36:20;99835.69;;;21.26;50.50
50430;BME280;36359;41.556;-8.418;2023-05-23T07:38:47;99843.38;;;21.24;50.65
50430;BME280;36359;41.556;-8.418;2023-05-23T07:41:13;99837.03;;;21.35;50.83
50430;BME280;36359;41.556;-8.418;2023-05-23T07:43:39;99838.53;;;21.38;50.04
50430;BME280;36359;41.556;-8.418;2023-05-23T07:46:05;99839.41;;;21.50;50.03
50430;BME280;36359;41.556;-8.418;2023-05-23T07:48:31;99833.69;;;21.51;49.45
50430;BME280;36359;41.556;-8.418;2023-05-23T07:50:57;99840.09;;;21.64;48.62
50430;BME280;36359;41.556;-8.418;2023-05-23T07:53:23;99840.81;;;21.59;49.90
50430;BME280;36359;41.556;-8.418;2023-05-23T07:55:48;99847.91;;;21.67;48.69
50430;BME280;36359;41.556;-8.418;2023-05-23T07:58:14;99845.13;;;21.67;48.95
50430;BME280;36359;41.556;-8.418;2023-05-23T08:00:40;99847.09;;;21.78;49.16
50430;BME280;36359;41.556;-8.418;2023-05-23T08:03:16;99850.84;;;21.84;48.26
50430;BME280;36359;41.556;-8.418;2023-05-23T08:05:54;99841.16;;;22.05;49.06
50430;BME280;36359;41.556;-8.418;2023-05-23T08:08:20;99851.56;;;22.21;47.17
50430;BME280;36359;41.556;-8.418;2023-05-23T08:10:46;99854.16;;;22.16;48.34
50430;BME280;36359;41.556;-8.418;2023-05-23T08:13:19;99850.78;;;22.14;47.69
50430;BME280;36359;41.556;-8.418;2023-05-23T08:16:04;99853.88;;;22.36;47.12
50430;BME280;36359;41.556;-8.418;2023-05-23T08:18:32;99858.06;;;22.27;47.05
50430;BME280;36359;41.556;-8.418;2023-05-23T08:21:01;99849.81;;;22.38;46.90
50430;BME280;36359;41.556;-8.418;2023-05-23T08:23:28;99854.47;;;22.50;47.11
50430;BME280;36359;41.556;-8.418;2023-05-23T08:25:54;99850.16;;;22.77;47.18
50430;BME280;36359;41.556;-8.418;2023-05-23T08:28:21;99847.63;;;22.64;46.84
50430;BME280;36359;41.556;-8.418;2023-05-23T08:30:52;99845.81;;;22.70;46.67
50430;BME280;36359;41.556;-8.418;2023-05-23T08:33:18;99838.81;;;22.90;46.74
50430;BME280;36359;41.556;-8.418;2023-05-23T08:35:45;99845.09;;;23.09;46.53
50430;BME280;36359;41.556;-8.418;2023-05-23T08:38:12;99841.00;;;23.12;46.56
50430;BME280;36359;41.556;-8.418;2023-05-23T08:40:49;99845.81;;;23.05;45.55
50430;BME280;36359;41.556;-8.418;2023-05-23T08:43:16;99851.09;;;23.18;45.64
50430;BME280;36359;41.556;-8.418;2023-05-23T08:45:42;99850.38;;;23.11;44.31
50430;BME280;36359;41.556;-8.418;2023-05-23T08:48:07;99847.72;;;23.16;43.62
50430;BME280;36359;41.556;-8.418;2023-05-23T08:50:41;99849.13;;;23.30;44.09
50430;BME280;36359;41.556;-8.418;2023-05-23T08:53:07;99847.44;;;23.29;44.37
50430;BME280;36359;41.556;-8.418;2023-05-23T08:55:37;99848.38;;;23.35;44.08
50430;BME280;36359;41.556;-8.418;2023-05-23T08:58:07;99839.56;;;23.38;44.13
50430;BME280;36359;41.556;-8.418;2023-05-23T09:00:44;99847.94;;;23.55;43.45
50430;BME280;36359;41.556;-8.418;2023-05-23T09:03:10;99852.53;;;23.49;42.98
50430;BME280;36359;41.556;-8.418;2023-05-23T09:05:45;99854.03;;;23.40;43.08
50430;BME280;36359;41.556;-8.418;2023-05-23T09:08:11;99848.91;;;23.61;42.60
50430;BME280;36359;41.556;-8.418;2023-05-23T09:10:37;99852.75;;;23.71;42.04
50430;BME280;36359;41.556;-8.418;2023-05-23T09:13:05;99848.72;;;23.67;42.28
50430;BME280;36359;41.556;-8.418;2023-05-23T09:15:32;99852.91;;;23.82;42.48
50430;BME280;36359;41.556;-8.418;2023-05-23T09:17:59;99860.50;;;24.03;41.58
50430;BME280;36359;41.556;-8.418;2023-05-23T09:20:31;99855.63;;;23.93;41.98
50430;BME280;36359;41.556;-8.418;2023-05-23T09:23:04;99863.28;;;24.03;40.98
50430;BME280;36359;41.556;-8.418;2023-05-23T09:25:31;99855.41;;;24.12;41.14
50430;BME280;36359;41.556;-8.418;2023-05-23T09:28:02;99852.91;;;24.27;41.13
50430;BME280;36359;41.556;-8.418;2023-05-23T09:30:32;99857.69;;;24.32;40.95
50430;BME280;36359;41.556;-8.418;2023-05-23T09:32:58;99853.28;;;24.02;40.07
50430;BME280;36359;41.556;-8.418;2023-05-23T09:35:27;99864.66;;;24.17;39.53
50430;BME280;36359;41.556;-8.418;2023-05-23T09:37:53;99866.84;;;24.15;39.47
50430;BME280;36359;41.556;-8.418;2023-05-23T09:40:20;99872.91;;;24.12;39.43
50430;BME280;36359;41.556;-8.418;2023-05-23T09:43:01;99865.25;;;24.19;39.46
50430;BME280;36359;41.556;-8.418;2023-05-23T09:45:30;99865.16;;;24.31;39.40
50430;BME280;36359;41.556;-8.418;2023-05-23T09:47:56;99865.91;;;24.26;39.81
50430;BME280;36359;41.556;-8.418;2023-05-23T09:50:22;99865.16;;;24.31;38.70
50430;BME280;36359;41.556;-8.418;2023-05-23T09:52:49;99864.47;;;24.41;39.06
50430;BME280;36359;41.556;-8.418;2023-05-23T09:55:15;99858.97;;;24.58;39.66
50430;BME280;36359;41.556;-8.418;2023-05-23T09:57:41;99858.88;;;24.69;39.67
50430;BME280;36359;41.556;-8.418;2023-05-23T10:00:08;99860.22;;;24.67;39.45
50430;BME280;36359;41.556;-8.418;2023-05-23T10:05:03;99847.47;;;24.88;40.26
50430;BME280;36359;41.556;-8.418;2023-05-23T10:07:31;99846.84;;;24.81;39.64
50430;BME280;36359;41.556;-8.418;2023-05-23T10:10:01;99841.41;;;24.91;39.62
50430;BME280;36359;41.556;-8.418;2023-05-23T10:14:56;99847.06;;;24.96;39.80
50430;BME280;36359;41.556;-8.418;2023-05-23T10:17:45;99851.56;;;25.02;39.35
50430;BME280;36359;41.556;-8.418;2023-05-23T10:20:42;99846.41;;;25.11;39.26
50430;BME280;36359;41.556;-8.418;2023-05-23T10:23:14;99844.88;;;24.98;39.11
50430;BME280;36359;41.556;-8.418;2023-05-23T10:25:43;99847.84;;;24.91;39.05
50430;BME280;36359;41.556;-8.418;2023-05-23T10:30:38;99853.28;;;25.03;39.28
50430;BME280;36359;41.556;-8.418;2023-05-23T10:33:10;99849.16;;;25.28;38.76
50430;BME280;36359;41.556;-8.418;2023-05-23T10:40:59;99836.72;;;25.30;38.75
50430;BME280;36359;41.556;-8.418;2023-05-23T10:45:55;99843.41;;;25.34;39.26
50430;BME280;36359;41.556;-8.418;2023-05-23T10:48:30;99837.41;;;25.21;39.73
50430;BME280;36359;41.556;-8.418;2023-05-23T10:51:01;99836.50;;;25.37;39.54
50430;BME280;36359;41.556;-8.418;2023-05-23T10:53:28;99840.00;;;25.76;38.66
50430;BME280;36359;41.556;-8.418;2023-05-23T10:55:54;99843.44;;;26.11;37.80
50430;BME280;36359;41.556;-8.418;2023-05-23T11:00:49;99836.38;;;25.98;38.79
50430;BME280;36359;41.556;-8.418;2023-05-23T11:03:16;99830.13;;;25.86;39.26
50430;BME280;36359;41.556;-8.418;2023-05-23T11:05:46;99841.34;;;25.96;37.88
50430;BME280;36359;41.556;-8.418;2023-05-23T11:08:13;99833.53;;;25.93;37.56
50430;BME280;36359;41.556;-8.418;2023-05-23T11:13:52;99830.97;;;25.86;37.71
50430;BME280;36359;41.556;-8.418;2023-05-23T11:18:51;99835.47;;;25.92;37.30
50430;BME280;36359;41.556;-8.418;2023-05-23T11:21:18;99842.72;;;26.25;36.78
50430;BME280;36359;41.556;-8.418;2023-05-23T11:23:52;99834.16;;;26.32;35.92
50430;BME280;36359;41.556;-8.418;2023-05-23T11:26:28;99832.00;;;26.07;36.90
50430;BME280;36359;41.556;-8.418;2023-05-23T11:28:54;99838.25;;;25.92;37.45
50430;BME280;36359;41.556;-8.418;2023-05-23T11:31:20;99832.63;;;25.87;37.38
50430;BME280;36359;41.556;-8.418;2023-05-23T11:33:45;99818.91;;;26.40;36.86
50430;BME280;36359;41.556;-8.418;2023-05-23T11:36:15;99812.91;;;26.53;36.47
50430;BME280;36359;41.556;-8.418;2023-05-23T11:38:40;99812.75;;;26.70;36.08
50430;BME280;36359;41.556;-8.418;2023-05-23T11:41:06;99823.91;;;26.75;36.26
50430;BME280;36359;41.556;-8.418;2023-05-23T11:43:32;99815.44;;;26.55;36.65
50430;BME280;36359;41.556;-8.418;2023-05-23T11:46:06;99820.00;;;26.71;36.73
50430;BME280;36359;41.556;-8.418;2023-05-23T11:48:32;99810.28;;;26.41;37.41
50430;BME280;36359;41.556;-8.418;2023-05-23T11:50:57;99821.16;;;26.43;36.25
50430;BME280;36359;41.556;-8.418;2023-05-23T11:53:25;99809.28;;;25.88;37.24
50430;BME280;36359;41.556;-8.418;2023-05-23T11:55:55;99806.81;;;25.65;38.22
50430;BME280;36359;41.556;-8.418;2023-05-23T11:58:29;99811.28;;;25.93;38.35
50430;BME280;36359;41.556;-8.418;2023-05-23T12:01:05;99816.59;;;25.94;39.09
50430;BME280;36359;41.556;-8.418;2023-05-23T12:03:32;99812.50;;;26.02;37.45
50430;BME280;36359;41.556;-8.418;2023-05-23T12:05:58;99815.50;;;25.95;37.89
50430;BME280;36359;41.556;-8.418;2023-05-23T12:08:26;99802.59;;;25.84;38.02
50430;BME280;36359;41.556;-8.418;2023-05-23T12:10:56;99800.44;;;26.23;37.96
50430;BME280;36359;41.556;-8.418;2023-05-23T12:13:26;99801.66;;;26.00;37.47
50430;BME280;36359;41.556;-8.418;2023-05-23T12:15:53;99791.25;;;25.86;38.38
50430;BME280;36359;41.556;-8.418;2023-05-23T12:18:19;99791.47;;;25.84;38.89
50430;BME280;36359;41.556;-8.418;2023-05-23T12:20:47;99794.63;;;25.93;37.74
50430;BME280;36359;41.556;-8.418;2023-05-23T12:23:22;99794.00;;;25.86;37.74
50430;BME280;36359;41.556;-8.418;2023-05-23T12:25:54;99788.75;;;26.21;37.18
50430;BME280;36359;41.556;-8.418;2023-05-23T12:28:20;99789.75;;;26.42;37.31
50430;BME280;36359;41.556;-8.418;2023-05-23T12:30:46;99787.09;;;26.58;37.61
50430;BME280;36359;41.556;-8.418;2023-05-23T12:33:12;99782.72;;;26.72;36.55
50430;BME280;36359;41.556;-8.418;2023-05-23T12:35:42;99769.41;;;26.84;36.73
50430;BME280;36359;41.556;-8.418;2023-05-23T12:38:08;99769.72;;;26.83;36.52
50430;BME280;36359;41.556;-8.418;2023-05-23T12:40:34;99776.78;;;27.11;35.94
50430;BME280;36359;41.556;-8.418;2023-05-23T12:43:00;99780.75;;;27.25;35.00
50430;BME280;36359;41.556;-8.418;2023-05-23T12:45:32;99774.00;;;27.11;35.77
50430;BME280;36359;41.556;-8.418;2023-05-23T12:48:01;99762.16;;;27.51;35.34
50430;BME280;36359;41.556;-8.418;2023-05-23T12:50:27;99776.16;;;27.82;34.75
50430;BME280;36359;41.556;-8.418;2023-05-23T12:52:52;99759.09;;;27.48;35.32
50430;BME280;36359;41.556;-8.418;2023-05-23T12:55:18;99753.56;;;27.73;33.95
50430;BME280;36359;41.556;-8.418;2023-05-23T12:57:43;99757.50;;;27.88;34.24
50430;BME280;36359;41.556;-8.418;2023-05-23T13:00:09;99750.81;;;28.04;33.43
50430;BME280;36359;41.556;-8.418;2023-05-23T13:02:35;99758.06;;;28.15;33.83
50430;BME280;36359;41.556;-8.418;2023-05-23T13:05:01;99746.06;;;28.45;33.30
50430;BME280;36359;41.556;-8.418;2023-05-23T13:07:27;99749.13;;;28.34;33.43
50430;BME280;36359;41.556;-8.418;2023-05-23T13:09:52;99750.78;;;28.35;32.76
50430;BME280;36359;41.556;-8.418;2023-05-23T13:12:18;99745.19;;;28.55;33.39
50430;BME280;36359;41.556;-8.418;2023-05-23T13:14:43;99738.25;;;28.42;32.54
50430;BME280;36359;41.556;-8.418;2023-05-23T13:17:09;99734.06;;;28.45;33.33
50430;BME280;36359;41.556;-8.418;2023-05-23T13:19:35;99733.19;;;28.49;33.40
50430;BME280;36359;41.556;-8.418;2023-05-23T13:22:01;99728.19;;;28.36;33.11